Time;durP1;ratioP1;P1;durP2;ratioP2;P2;SDS_P1;SDS_P2;PMS_P1;PMS_P2;Temp;Humidity;BMP_temperature;BMP_pressure;BME280_temperature;BME280_humidity;BME280_pressure;Samples;Min_cycle;Max_cycle;Signal;HPM_P1;HPM_P2
2021/06/05 00:01:34;;;;;;;2.53;2.38;;;13.90;87.60;;;;;;5048651;28;20207;-72
2021/06/05 00:04:00;;;;;;;2.45;2.35;;;13.80;87.80;;;;;;5050452;28;20194;-72
2021/06/05 00:06:27;;;;;;;3.28;2.22;;;13.80;88.40;;;;;;5048306;28;20566;-72
2021/06/05 00:08:54;;;;;;;2.58;2.40;;;13.80;88.70;;;;;;5048564;28;20222;-73
2021/06/05 00:11:23;;;;;;;2.67;2.47;;;13.80;88.90;;;;;;5048786;28;20249;-72
2021/06/05 00:13:55;;;;;;;2.53;2.42;;;13.70;88.60;;;;;;5052464;28;20195;-72
2021/06/05 00:16:25;;;;;;;2.40;2.35;;;13.80;88.50;;;;;;5048180;28;20207;-71
2021/06/05 00:18:52;;;;;;;5.80;2.50;;;13.70;88.40;;;;;;5054637;28;20699;-72
2021/06/05 00:21:20;;;;;;;3.88;2.65;;;13.70;88.40;;;;;;5053355;28;20176;-72
2021/06/05 00:23:47;;;;;;;5.43;2.88;;;13.70;88.30;;;;;;5039835;28;20245;-71
2021/06/05 00:26:13;;;;;;;2.55;2.45;;;13.60;88.60;;;;;;5047621;28;20600;-72
2021/06/05 00:28:39;;;;;;;4.38;2.42;;;13.60;88.90;;;;;;5048721;28;20183;-72
2021/06/05 00:31:05;;;;;;;3.22;3.03;;;13.60;89.00;;;;;;5046672;28;20217;-72
2021/06/05 00:33:31;;;;;;;2.65;2.50;;;13.60;89.20;;;;;;5052260;28;20197;-72
2021/06/05 00:35:57;;;;;;;3.13;2.90;;;13.60;89.50;;;;;;5052612;28;20625;-71
2021/06/05 00:38:23;;;;;;;2.55;2.40;;;13.50;90.00;;;;;;5045901;28;20176;-71
2021/06/05 00:40:53;;;;;;;5.28;3.40;;;13.50;90.10;;;;;;5043356;28;20190;-70
2021/06/05 00:43:23;;;;;;;3.45;2.97;;;13.50;90.10;;;;;;5045954;28;20282;-72
2021/06/05 00:45:49;;;;;;;3.40;3.13;;;13.40;90.10;;;;;;5047605;28;20182;-72
2021/06/05 00:48:16;;;;;;;2.97;2.60;;;13.40;90.30;;;;;;5050022;28;20680;-72
2021/06/05 00:50:43;;;;;;;3.17;2.97;;;13.40;90.30;;;;;;5047482;28;20207;-72
2021/06/05 00:53:11;;;;;;;2.90;2.80;;;13.30;91.10;;;;;;5053738;28;20270;-72
2021/06/05 00:55:41;;;;;;;5.25;3.35;;;13.30;91.00;;;;;;5048317;28;20183;-72
2021/06/05 00:58:07;;;;;;;2.97;2.78;;;13.30;90.50;;;;;;5055363;28;20191;-72
2021/06/05 01:00:50;;;;;;;2.50;2.40;;;13.30;90.50;;;;;;5056917;28;20199;-72
2021/06/05 01:03:17;;;;;;;2.40;2.30;;;13.20;89.80;;;;;;5053117;28;20202;-72
2021/06/05 01:05:44;;;;;;;2.63;2.63;;;13.20;89.80;;;;;;5050457;28;20175;-73
2021/06/05 01:08:25;;;;;;;2.75;2.55;;;13.20;89.90;;;;;;5052731;28;20630;-73
2021/06/05 01:10:58;;;;;;;2.72;2.55;;;13.20;89.60;;;;;;5036062;28;20304;-72
2021/06/05 01:13:52;;;;;;;2.40;2.40;;;13.20;89.80;;;;;;5055310;28;20791;-72
2021/06/05 01:16:20;;;;;;;2.72;2.63;;;13.20;89.60;;;;;;5023537;28;20266;-73
2021/06/05 01:18:52;;;;;;;2.53;2.33;;;13.20;90.00;;;;;;5031447;28;20195;-72
2021/06/05 01:21:55;;;;;;;2.35;2.25;;;13.20;89.70;;;;;;5030252;28;20228;-73
2021/06/05 01:24:28;;;;;;;2.40;2.30;;;13.30;89.80;;;;;;5018464;28;20206;-72
2021/06/05 01:27:06;;;;;;;2.78;2.65;;;13.30;90.00;;;;;;5023362;28;20196;-72
2021/06/05 01:29:36;;;;;;;2.63;2.45;;;13.30;89.80;;;;;;5022434;28;20937;-72
2021/06/05 01:32:07;;;;;;;2.95;2.67;;;13.30;89.90;;;;;;5028668;28;20188;-73
2021/06/05 01:35:04;;;;;;;2.35;2.25;;;13.30;89.90;;;;;;5023865;28;20200;-73
2021/06/05 01:37:29;;;;;;;3.33;3.03;;;13.30;89.80;;;;;;5007307;28;20460;-72
2021/06/05 01:39:55;;;;;;;3.30;2.40;;;13.30;90.40;;;;;;5034178;28;20732;-73
2021/06/05 01:42:26;;;;;;;5.43;3.08;;;13.30;90.80;;;;;;5027370;28;20681;-72
2021/06/05 01:44:55;;;;;;;3.53;3.20;;;13.20;91.30;;;;;;5026719;28;20299;-72
2021/06/05 01:47:21;;;;;;;2.90;2.70;;;13.10;91.60;;;;;;5023981;28;20201;-75
2021/06/05 01:49:48;;;;;;;3.28;2.97;;;13.10;91.80;;;;;;5027740;28;20349;-73
2021/06/05 01:52:27;;;;;;;2.58;2.47;;;13.00;91.70;;;;;;5028349;28;20736;-73
2021/06/05 01:55:03;;;;;;;4.38;2.85;;;13.00;91.50;;;;;;5057382;28;20191;-71
2021/06/05 01:57:33;;;;;;;2.95;2.75;;;13.00;91.70;;;;;;5051110;28;20183;-72
2021/06/05 01:59:59;;;;;;;3.05;2.95;;;12.90;91.80;;;;;;5047597;28;20209;-73
2021/06/05 02:02:25;;;;;;;3.30;3.10;;;12.90;92.00;;;;;;5051206;28;20257;-73
2021/06/05 02:04:52;;;;;;;3.22;3.03;;;12.80;91.70;;;;;;5056571;28;20191;-73
2021/06/05 02:07:18;;;;;;;3.08;2.88;;;12.80;91.80;;;;;;5050026;28;20180;-73
2021/06/05 02:09:44;;;;;;;3.35;3.15;;;12.70;91.70;;;;;;5055416;28;20663;-73
2021/06/05 02:12:25;;;;;;;3.35;3.03;;;12.70;91.80;;;;;;5051305;28;20180;-73
2021/06/05 02:15:08;;;;;;;3.00;2.72;;;12.70;91.80;;;;;;5057639;28;20190;-73
2021/06/05 02:17:37;;;;;;;2.92;2.72;;;12.70;91.40;;;;;;5056139;28;20195;-73
2021/06/05 02:20:12;;;;;;;2.78;2.58;;;12.70;91.70;;;;;;5050524;28;20300;-73
2021/06/05 02:22:42;;;;;;;3.00;2.80;;;12.60;91.40;;;;;;5042079;28;20324;-73
2021/06/05 02:25:11;;;;;;;2.70;2.60;;;12.60;91.50;;;;;;5055583;28;20174;-72
2021/06/05 02:27:37;;;;;;;3.00;2.70;;;12.60;91.50;;;;;;5061746;28;20220;-73
2021/06/05 02:30:07;;;;;;;5.10;2.75;;;12.60;91.50;;;;;;5049841;28;20882;-73
2021/06/05 02:32:33;;;;;;;2.30;2.20;;;12.60;91.60;;;;;;5050061;28;20184;-73
2021/06/05 02:35:00;;;;;;;3.17;2.90;;;12.60;91.90;;;;;;5058011;28;20202;-71
2021/06/05 02:37:30;;;;;;;2.58;2.47;;;12.60;91.80;;;;;;5048981;28;20679;-73
2021/06/05 02:39:58;;;;;;;2.55;2.45;;;12.60;91.80;;;;;;5037673;28;21693;-73
2021/06/05 02:42:26;;;;;;;4.28;2.70;;;12.60;92.00;;;;;;5049757;28;20345;-73
2021/06/05 02:44:56;;;;;;;2.78;2.67;;;12.60;92.00;;;;;;5056027;28;20574;-73
2021/06/05 02:47:24;;;;;;;2.40;2.22;;;12.60;92.00;;;;;;5050010;28;20317;-73
2021/06/05 02:49:51;;;;;;;2.55;2.42;;;12.60;91.90;;;;;;5052356;28;20708;-73
2021/06/05 02:52:33;;;;;;;2.90;2.45;;;12.60;92.00;;;;;;5051902;28;20192;-73
2021/06/05 02:55:08;;;;;;;3.28;2.90;;;12.60;91.80;;;;;;5062395;28;20186;-74
2021/06/05 02:57:34;;;;;;;2.58;2.47;;;12.60;91.90;;;;;;5049008;28;20232;-73
2021/06/05 03:00:00;;;;;;;4.13;2.38;;;12.60;92.10;;;;;;5052040;28;20187;-73
2021/06/05 03:02:26;;;;;;;2.42;2.33;;;12.60;92.30;;;;;;5055978;28;20267;-74
2021/06/05 03:04:52;;;;;;;2.35;2.25;;;12.60;92.10;;;;;;5047552;28;20187;-73
2021/06/05 03:07:18;;;;;;;4.13;2.72;;;12.60;92.30;;;;;;5046984;28;20184;-72
2021/06/05 03:09:45;;;;;;;2.67;2.47;;;12.60;92.30;;;;;;5085147;28;20207;-72
2021/06/05 03:12:13;;;;;;;2.40;2.30;;;12.60;92.30;;;;;;5061185;28;20219;-72
2021/06/05 03:14:40;;;;;;;2.20;2.20;;;12.60;92.70;;;;;;5049430;28;20291;-71
2021/06/05 03:17:08;;;;;;;2.22;2.10;;;12.60;92.80;;;;;;5049231;28;20179;-71
2021/06/05 03:19:34;;;;;;;4.40;2.83;;;12.60;93.10;;;;;;5054031;28;20269;-71
2021/06/05 03:22:00;;;;;;;2.42;2.33;;;12.50;92.80;;;;;;5060434;28;20248;-71
2021/06/05 03:24:26;;;;;;;1.90;1.80;;;12.60;92.70;;;;;;5058579;28;20622;-72
2021/06/05 03:26:53;;;;;;;2.15;2.05;;;12.60;92.50;;;;;;5053121;28;20213;-72
2021/06/05 03:29:20;;;;;;;2.30;2.20;;;12.60;92.40;;;;;;5056941;28;20251;-72
2021/06/05 03:31:45;;;;;;;1.98;1.85;;;12.60;92.50;;;;;;5049670;28;20190;-72
2021/06/05 03:34:11;;;;;;;3.00;2.80;;;12.60;92.50;;;;;;5056619;28;20179;-72
2021/06/05 03:36:37;;;;;;;3.13;2.92;;;12.60;92.50;;;;;;5049158;28;20665;-72
2021/06/05 03:39:05;;;;;;;2.60;2.50;;;12.60;92.50;;;;;;5057668;28;20187;-71
2021/06/05 03:41:30;;;;;;;2.13;2.03;;;12.70;92.30;;;;;;5050576;28;20317;-71
2021/06/05 03:43:56;;;;;;;3.45;2.00;;;12.70;92.40;;;;;;5048511;28;20176;-70
2021/06/05 03:46:22;;;;;;;2.65;2.55;;;12.70;92.40;;;;;;5045682;28;20198;-72
2021/06/05 03:48:48;;;;;;;2.13;2.03;;;12.70;92.30;;;;;;5058475;28;20175;-73
2021/06/05 03:51:13;;;;;;;2.42;2.22;;;12.70;92.40;;;;;;5048668;28;20188;-72
2021/06/05 03:53:39;;;;;;;2.90;2.33;;;12.70;92.30;;;;;;5050226;28;20189;-73
2021/06/05 03:56:05;;;;;;;2.72;2.63;;;12.70;92.30;;;;;;5048462;28;20179;-71
2021/06/05 03:58:41;;;;;;;2.92;2.83;;;12.70;92.40;;;;;;5048219;28;20895;-72
2021/06/05 04:01:11;;;;;;;2.80;2.70;;;12.80;92.20;;;;;;5047061;28;20187;-72
2021/06/05 04:03:37;;;;;;;2.75;2.65;;;12.80;92.30;;;;;;5048139;28;20692;-73
2021/06/05 04:06:04;;;;;;;8.82;2.72;;;12.80;92.50;;;;;;5048146;28;20192;-73
2021/06/05 04:08:29;;;;;;;3.30;3.10;;;12.80;92.50;;;;;;5048059;28;20210;-73
2021/06/05 04:10:55;;;;;;;3.88;3.42;;;12.90;92.60;;;;;;5047853;28;20336;-73
2021/06/05 04:13:21;;;;;;;3.13;2.88;;;12.90;92.50;;;;;;5047663;28;20175;-73
2021/06/05 04:15:46;;;;;;;3.38;3.22;;;12.90;92.50;;;;;;5048196;28;20826;-74
2021/06/05 04:18:25;;;;;;;4.05;3.75;;;12.90;92.40;;;;;;5047578;28;20180;-71
2021/06/05 04:20:52;;;;;;;5.35;3.80;;;13.00;92.30;;;;;;5047190;28;20332;-73
2021/06/05 04:23:19;;;;;;;3.30;3.08;;;13.00;92.40;;;;;;5047281;28;20180;-72
2021/06/05 04:25:45;;;;;;;3.00;2.85;;;13.00;92.30;;;;;;5049166;28;20190;-71
2021/06/05 04:28:13;;;;;;;3.33;3.13;;;13.10;92.30;;;;;;5049168;28;20184;-73
2021/06/05 04:30:40;;;;;;;2.55;2.42;;;13.20;92.10;;;;;;5051488;28;20289;-72
2021/06/05 04:33:08;;;;;;;3.15;2.70;;;13.20;91.90;;;;;;5047683;28;20583;-71
2021/06/05 04:35:34;;;;;;;3.45;3.22;;;13.20;92.20;;;;;;5047773;28;20272;-72
2021/06/05 04:37:59;;;;;;;6.40;3.17;;;13.30;92.20;;;;;;5047539;28;20676;-72
2021/06/05 04:40:26;;;;;;;2.90;2.80;;;13.30;92.10;;;;;;5052730;28;20183;-73
2021/06/05 04:42:52;;;;;;;3.10;2.90;;;13.40;92.00;;;;;;5055563;28;20191;-72
2021/06/05 04:45:19;;;;;;;2.95;2.80;;;13.40;92.10;;;;;;5045028;28;20913;-71
2021/06/05 04:47:45;;;;;;;3.17;3.00;;;13.50;91.90;;;;;;5047149;28;20211;-73
2021/06/05 04:50:14;;;;;;;2.88;2.65;;;13.50;92.00;;;;;;5047734;28;20203;-71
2021/06/05 04:52:40;;;;;;;6.03;3.25;;;13.60;91.80;;;;;;5047672;28;20179;-71
2021/06/05 04:55:07;;;;;;;3.17;3.05;;;13.60;91.50;;;;;;5046121;28;20186;-71
2021/06/05 04:57:33;;;;;;;3.17;2.97;;;13.70;91.20;;;;;;5047962;28;20180;-72
2021/06/05 04:59:59;;;;;;;2.90;2.78;;;13.70;91.30;;;;;;5046817;28;20184;-71
2021/06/05 05:02:25;;;;;;;3.25;2.95;;;13.80;91.20;;;;;;5046783;28;20190;-71
2021/06/05 05:04:50;;;;;;;2.67;2.47;;;13.80;91.10;;;;;;5045116;28;20176;-72
2021/06/05 05:07:19;;;;;;;3.28;3.10;;;13.90;90.90;;;;;;5047349;28;20183;-72
2021/06/05 05:09:45;;;;;;;2.70;2.53;;;13.90;90.70;;;;;;5046475;28;20227;-71
2021/06/05 05:12:12;;;;;;;3.00;2.90;;;14.00;90.30;;;;;;5046594;28;20194;-71
2021/06/05 05:14:38;;;;;;;3.15;3.05;;;14.00;90.10;;;;;;5049331;28;20257;-71
2021/06/05 05:17:04;;;;;;;2.88;2.78;;;14.10;90.00;;;;;;5052310;28;20183;-75
2021/06/05 05:19:31;;;;;;;3.13;2.42;;;14.10;89.70;;;;;;5051551;28;20194;-74
2021/06/05 05:21:57;;;;;;;3.38;2.35;;;14.10;89.40;;;;;;5040333;28;20198;-74
2021/06/05 05:24:24;;;;;;;2.42;2.33;;;14.20;89.10;;;;;;5055778;28;20329;-73
2021/06/05 05:26:50;;;;;;;3.08;2.50;;;14.30;89.00;;;;;;5059416;28;20187;-75
2021/06/05 05:29:15;;;;;;;2.28;2.17;;;14.30;88.70;;;;;;5059779;28;20238;-74
2021/06/05 05:31:41;;;;;;;2.67;2.58;;;14.30;88.40;;;;;;5062647;28;20211;-74
2021/06/05 05:34:07;;;;;;;2.45;2.35;;;14.40;88.40;;;;;;5058981;28;20696;-73
2021/06/05 05:36:36;;;;;;;2.90;2.70;;;14.50;88.40;;;;;;5058074;28;20668;-74
2021/06/05 05:39:05;;;;;;;2.38;2.28;;;14.50;87.70;;;;;;5055596;28;20185;-73
2021/06/05 05:41:31;;;;;;;2.80;2.60;;;14.60;87.70;;;;;;5036259;28;20711;-74
2021/06/05 05:43:57;;;;;;;3.70;2.70;;;14.60;87.90;;;;;;5049262;28;20221;-73
2021/06/05 05:46:23;;;;;;;2.65;2.45;;;14.70;87.90;;;;;;5049993;28;20656;-73
2021/06/05 05:48:49;;;;;;;2.78;2.55;;;14.80;88.00;;;;;;5052705;28;20183;-74
2021/06/05 05:51:17;;;;;;;3.63;2.95;;;14.80;87.60;;;;;;5047125;28;20183;-70
2021/06/05 05:53:43;;;;;;;2.95;2.80;;;14.90;87.60;;;;;;5053810;28;20619;-74
2021/06/05 05:56:12;;;;;;;2.60;2.50;;;15.00;87.50;;;;;;5050109;28;20207;-72
2021/06/05 05:58:42;;;;;;;2.72;2.63;;;15.00;86.80;;;;;;5049468;28;20176;-71
2021/06/05 06:01:10;;;;;;;2.10;2.10;;;15.10;86.80;;;;;;5049985;28;20199;-72
2021/06/05 06:03:36;;;;;;;2.65;2.55;;;15.20;86.90;;;;;;5049841;28;20179;-73
2021/06/05 06:06:04;;;;;;;2.47;2.38;;;15.20;86.50;;;;;;5048195;28;20353;-72
2021/06/05 06:08:30;;;;;;;3.42;2.30;;;15.30;86.40;;;;;;5049696;28;20168;-74
2021/06/05 06:10:56;;;;;;;2.17;2.13;;;15.40;86.30;;;;;;5049690;28;20218;-72
2021/06/05 06:13:21;;;;;;;3.63;2.15;;;15.40;86.10;;;;;;5048674;28;20175;-73
2021/06/05 06:15:48;;;;;;;1.92;1.92;;;15.50;85.70;;;;;;5049821;28;20622;-71
2021/06/05 06:18:14;;;;;;;2.20;1.95;;;15.60;85.50;;;;;;5049676;28;20233;-71
2021/06/05 06:20:44;;;;;;;2.42;2.22;;;15.60;84.90;;;;;;5049334;28;20372;-70
2021/06/05 06:23:31;;;;;;;2.08;1.95;;;15.70;84.60;;;;;;5048882;28;20195;-73
2021/06/05 06:26:00;;;;;;;2.42;2.33;;;15.80;84.50;;;;;;5049671;28;20622;-72
2021/06/05 06:28:35;;;;;;;2.30;2.15;;;15.90;84.50;;;;;;5049465;28;20179;-72
2021/06/05 06:31:03;;;;;;;2.60;2.40;;;16.00;84.20;;;;;;5049133;28;20215;-73
2021/06/05 06:33:30;;;;;;;2.25;2.15;;;16.00;84.10;;;;;;5048383;28;20183;-72
2021/06/05 06:35:56;;;;;;;2.45;2.35;;;16.10;84.00;;;;;;5050861;28;20571;-72
2021/06/05 06:38:30;;;;;;;2.60;2.40;;;16.20;84.00;;;;;;5049905;28;20183;-72
2021/06/05 06:40:57;;;;;;;2.50;2.33;;;16.30;83.70;;;;;;5046347;28;20184;-71
2021/06/05 06:43:25;;;;;;;2.30;2.13;;;16.40;83.80;;;;;;5055581;28;20188;-71
2021/06/05 06:45:52;;;;;;;2.85;2.67;;;16.50;83.60;;;;;;5055399;28;20187;-71
2021/06/05 06:48:17;;;;;;;3.85;2.95;;;16.50;83.50;;;;;;5057484;28;20187;-71
2021/06/05 06:50:43;;;;;;;4.18;3.35;;;16.60;83.50;;;;;;5057419;28;20214;-70
2021/06/05 06:53:09;;;;;;;3.08;2.55;;;16.70;83.50;;;;;;5056865;28;20215;-71
2021/06/05 06:55:35;;;;;;;4.03;2.92;;;16.70;83.50;;;;;;5056243;28;20183;-72
2021/06/05 06:58:01;;;;;;;9.35;3.45;;;16.80;83.50;;;;;;5057373;28;20183;-71
2021/06/05 07:00:39;;;;;;;3.10;3.00;;;16.90;83.20;;;;;;5055934;28;21045;-72
2021/06/05 07:03:05;;;;;;;3.17;3.08;;;17.00;82.30;;;;;;5056101;28;20191;-72
2021/06/05 07:05:31;;;;;;;3.53;3.33;;;17.10;82.50;;;;;;5050529;28;20237;-71
2021/06/05 07:08:22;;;;;;;3.53;3.33;;;17.10;82.60;;;;;;5049859;28;20247;-74
2021/06/05 07:10:50;;;;;;;2.97;2.78;;;17.20;82.20;;;;;;5046209;28;20211;-74
2021/06/05 07:13:17;;;;;;;3.25;3.00;;;17.30;82.10;;;;;;5042219;28;20257;-74
2021/06/05 07:15:42;;;;;;;3.65;3.55;;;17.30;82.40;;;;;;5048086;28;20241;-74
2021/06/05 07:18:10;;;;;;;3.67;3.40;;;17.40;82.40;;;;;;5046189;28;20184;-73
2021/06/05 07:20:36;;;;;;;4.13;3.63;;;17.50;82.50;;;;;;5043710;28;20271;-72
2021/06/05 07:23:02;;;;;;;3.53;3.17;;;17.50;82.20;;;;;;5048148;28;20846;-72
2021/06/05 07:25:28;;;;;;;2.75;2.55;;;17.70;82.10;;;;;;5048412;28;20265;-72
2021/06/05 07:28:08;;;;;;;3.78;3.15;;;17.70;82.10;;;;;;5049917;28;20715;-72
2021/06/05 07:30:34;;;;;;;3.20;3.08;;;17.80;81.60;;;;;;5048319;28;20257;-72
2021/06/05 07:33:00;;;;;;;3.20;3.00;;;17.90;81.30;;;;;;5050518;28;20179;-71
2021/06/05 07:35:25;;;;;;;3.75;3.53;;;18.00;81.20;;;;;;5047427;28;20255;-72
2021/06/05 07:37:51;;;;;;;4.18;3.83;;;18.00;81.00;;;;;;5048026;28;20176;-71
2021/06/05 07:40:18;;;;;;;3.90;3.58;;;18.10;80.60;;;;;;5047893;28;20187;-71
2021/06/05 07:42:43;;;;;;;3.03;2.90;;;18.20;80.00;;;;;;5048062;28;20187;-73
2021/06/05 07:45:10;;;;;;;3.08;2.90;;;18.30;80.30;;;;;;5046079;28;20209;-72
2021/06/05 07:47:37;;;;;;;3.55;3.25;;;18.40;80.20;;;;;;5047573;28;20179;-71
2021/06/05 07:50:06;;;;;;;3.72;2.85;;;18.40;80.10;;;;;;5054801;28;20218;-71
2021/06/05 07:52:32;;;;;;;4.25;3.38;;;18.50;79.30;;;;;;5044680;28;20191;-71
2021/06/05 07:54:57;;;;;;;7.32;3.55;;;18.60;78.80;;;;;;5053437;28;20245;-71
2021/06/05 07:57:24;;;;;;;2.80;2.70;;;18.60;78.50;;;;;;5051450;28;20700;-71
2021/06/05 07:59:50;;;;;;;2.78;2.63;;;18.60;79.00;;;;;;5050496;28;20183;-71
2021/06/05 08:02:17;;;;;;;2.80;2.70;;;18.70;79.20;;;;;;5047508;28;20184;-73
2021/06/05 08:04:42;;;;;;;2.75;2.65;;;18.80;78.80;;;;;;5047160;28;20711;-71
2021/06/05 08:07:08;;;;;;;2.97;2.78;;;18.90;78.30;;;;;;5045153;28;20199;-71
2021/06/05 08:09:34;;;;;;;7.47;3.33;;;18.90;78.00;;;;;;5052091;28;20894;-74
2021/06/05 08:12:00;;;;;;;3.60;3.40;;;19.00;78.20;;;;;;5052186;28;20225;-73
2021/06/05 08:14:26;;;;;;;4.00;2.78;;;19.10;78.50;;;;;;5053046;28;20209;-71
2021/06/05 08:16:52;;;;;;;3.08;2.85;;;19.20;77.70;;;;;;5046057;28;20187;-73
2021/06/05 08:19:18;;;;;;;4.43;2.60;;;19.20;75.60;;;;;;5052107;28;20195;-72
2021/06/05 08:21:46;;;;;;;2.63;2.58;;;19.20;75.60;;;;;;5041829;28;20191;-73
2021/06/05 08:24:13;;;;;;;4.18;2.50;;;19.30;75.30;;;;;;5047332;28;20176;-72
2021/06/05 08:26:39;;;;;;;2.15;2.13;;;19.30;75.60;;;;;;5051904;28;20179;-72
2021/06/05 08:29:05;;;;;;;4.28;2.83;;;19.40;76.10;;;;;;5050280;28;20336;-72
2021/06/05 08:31:31;;;;;;;4.72;3.17;;;19.50;76.20;;;;;;5048899;28;20191;-72
2021/06/05 08:33:57;;;;;;;3.05;2.78;;;19.60;75.50;;;;;;5045688;28;20183;-71
2021/06/05 08:36:26;;;;;;;2.40;2.30;;;19.70;75.50;;;;;;5053363;28;20192;-71
2021/06/05 08:38:53;;;;;;;2.67;2.47;;;19.80;75.30;;;;;;5047045;28;20184;-72
2021/06/05 08:41:38;;;;;;;2.10;2.10;;;19.90;75.30;;;;;;5047263;28;20180;-72
2021/06/05 08:44:16;;;;;;;2.45;2.35;;;20.00;74.30;;;;;;5045796;28;20193;-72
2021/06/05 08:46:45;;;;;;;2.20;2.13;;;20.00;71.30;;;;;;5054748;28;20809;-72
2021/06/05 08:49:22;;;;;;;2.40;2.30;;;20.10;72.00;;;;;;5047948;28;20183;-72
2021/06/05 08:52:15;;;;;;;2.00;2.00;;;20.20;71.30;;;;;;5047262;28;20204;-72
2021/06/05 08:54:50;;;;;;;2.40;2.30;;;20.20;69.80;;;;;;5046805;28;20188;-71
2021/06/05 08:57:36;;;;;;;2.42;2.33;;;20.30;70.90;;;;;;5046695;28;20187;-71
2021/06/05 09:00:17;;;;;;;2.35;2.22;;;20.30;70.30;;;;;;5045567;28;20552;-71
2021/06/05 09:02:46;;;;;;;2.67;1.95;;;20.40;70.70;;;;;;5045903;28;20179;-72
2021/06/05 09:05:17;;;;;;;2.55;1.80;;;20.60;72.00;;;;;;5049224;28;20186;-71
2021/06/05 09:07:43;;;;;;;2.25;2.15;;;20.70;70.90;;;;;;5046234;28;20188;-71
2021/06/05 09:10:14;;;;;;;1.95;1.95;;;20.80;70.80;;;;;;5044743;28;20264;-72
2021/06/05 09:12:39;;;;;;;1.98;1.90;;;21.00;70.60;;;;;;5039289;28;20521;-71
2021/06/05 09:15:07;;;;;;;2.10;2.10;;;21.10;69.80;;;;;;5050058;28;20274;-72
2021/06/05 09:17:44;;;;;;;1.77;1.67;;;21.30;70.60;;;;;;5047010;28;20707;-71
2021/06/05 09:20:12;;;;;;;1.95;1.85;;;21.40;69.40;;;;;;5041918;28;20214;-72
2021/06/05 09:22:42;;;;;;;1.67;1.58;;;21.60;69.10;;;;;;5046524;28;20187;-71
2021/06/05 09:25:22;;;;;;;1.88;1.77;;;21.80;68.20;;;;;;5045223;28;20565;-72
2021/06/05 09:27:48;;;;;;;3.60;2.03;;;21.90;66.80;;;;;;5048126;28;20184;-72
2021/06/05 09:30:37;;;;;;;1.80;1.70;;;22.00;65.10;;;;;;5043802;28;20199;-72
2021/06/05 09:33:08;;;;;;;1.40;1.08;;;22.10;66.10;;;;;;5042911;28;20187;-72
2021/06/05 09:35:45;;;;;;;1.65;1.65;;;22.30;66.30;;;;;;5049909;28;20233;-72
2021/06/05 09:38:16;;;;;;;1.50;1.35;;;22.40;65.60;;;;;;5046961;28;20199;-73
2021/06/05 09:41:18;;;;;;;1.30;1.30;;;22.60;64.20;;;;;;5047075;28;20190;-73
2021/06/05 09:43:46;;;;;;;1.00;1.00;;;22.80;61.20;;;;;;5029075;28;20183;-72
2021/06/05 09:46:21;;;;;;;1.08;1.08;;;22.90;62.30;;;;;;5031237;28;20194;-72
2021/06/05 09:48:50;;;;;;;2.22;1.42;;;23.00;62.40;;;;;;5031020;28;20655;-71
2021/06/05 09:51:28;;;;;;;1.35;1.35;;;23.10;61.50;;;;;;5031009;28;20219;-71
2021/06/05 09:54:08;;;;;;;1.58;1.25;;;23.20;60.00;;;;;;5030213;28;20803;-71
2021/06/05 09:56:52;;;;;;;1.10;1.10;;;23.20;60.00;;;;;;5030022;28;20195;-71
2021/06/05 09:59:33;;;;;;;1.40;1.40;;;23.40;59.80;;;;;;5041161;28;20847;-70
2021/06/05 10:02:03;;;;;;;1.45;1.45;;;23.50;60.90;;;;;;5047676;28;20286;-72
2021/06/05 10:04:32;;;;;;;1.33;1.33;;;23.60;60.10;;;;;;5042164;28;20724;-71
2021/06/05 10:07:00;;;;;;;1.52;1.52;;;23.80;58.60;;;;;;5045595;28;20180;-70
2021/06/05 10:09:26;;;;;;;1.48;1.48;;;23.90;58.30;;;;;;5049451;28;20246;-70
2021/06/05 10:12:02;;;;;;;1.85;1.75;;;24.10;58.80;;;;;;5048193;28;20183;-72
2021/06/05 10:15:15;;;;;;;1.40;1.40;;;24.40;58.30;;;;;;5051020;28;20191;-72
2021/06/05 10:17:57;;;;;;;1.20;1.20;;;24.70;56.90;;;;;;5032764;28;20192;-72
2021/06/05 10:20:46;;;;;;;1.23;1.23;;;25.20;57.50;;;;;;5034260;28;20241;-72
2021/06/05 10:23:24;;;;;;;2.30;1.27;;;25.50;54.30;;;;;;5039487;28;20195;-71
2021/06/05 10:25:56;;;;;;;1.20;1.20;;;26.00;54.70;;;;;;5020645;28;20255;-72
2021/06/05 10:28:27;;;;;;;3.13;1.10;;;26.50;54.20;;;;;;5022872;28;20775;-72
2021/06/05 10:31:08;;;;;;;1.10;1.10;;;27.00;53.00;;;;;;5020253;28;20737;-72
2021/06/05 10:33:57;;;;;;;1.13;1.13;;;27.40;53.00;;;;;;5028766;28;20199;-72
2021/06/05 10:36:46;;;;;;;1.52;1.17;;;28.10;49.90;;;;;;4978398;28;20403;-72
2021/06/05 10:39:37;;;;;;;1.17;1.17;;;28.80;50.80;;;;;;4932982;29;20200;-71
2021/06/05 10:42:24;;;;;;;3.25;1.15;;;29.10;49.20;;;;;;4923349;29;20400;-70
2021/06/05 10:44:50;;;;;;;1.02;1.02;;;29.40;49.50;;;;;;4928751;29;20191;-70
2021/06/05 10:47:29;;;;;;;1.00;1.00;;;29.60;49.50;;;;;;4926320;29;20662;-70
2021/06/05 10:50:15;;;;;;;2.35;1.35;;;30.00;49.60;;;;;;4913655;29;20231;-69
2021/06/05 10:52:59;;;;;;;1.45;1.45;;;30.50;49.30;;;;;;4923656;29;20195;-72
2021/06/05 10:55:33;;;;;;;3.13;1.27;;;31.10;48.70;;;;;;4923360;29;20605;-72
2021/06/05 11:01:24;;;;;;;3.80;1.15;;;32.60;47.70;;;;;;4917902;29;20195;-71
2021/06/05 11:04:01;;;;;;;1.75;1.15;;;33.40;46.40;;;;;;4927712;29;20911;-72
2021/06/05 11:06:55;;;;;;;1.10;1.10;;;34.00;46.50;;;;;;4929208;29;20199;-72
2021/06/05 11:09:27;;;;;;;1.63;1.13;;;34.40;46.80;;;;;;4928914;29;20223;-72
2021/06/05 11:11:54;;;;;;;1.20;1.20;;;34.90;43.80;;;;;;4927395;29;20204;-71
2021/06/05 11:14:22;;;;;;;1.10;1.10;;;35.10;43.10;;;;;;4946471;28;20748;-73
2021/06/05 11:17:19;;;;;;;1.42;1.20;;;35.40;46.60;;;;;;4990299;28;20272;-70
2021/06/05 11:19:53;;;;;;;1.25;1.25;;;35.70;42.50;;;;;;5017361;28;20188;-70
2021/06/05 11:22:25;;;;;;;3.67;1.35;;;35.90;44.00;;;;;;5024251;28;20192;-70
2021/06/05 11:25:06;;;;;;;1.30;1.30;;;36.20;44.60;;;;;;5025271;28;20688;-70
2021/06/05 11:27:37;;;;;;;1.42;1.33;;;36.10;42.50;;;;;;5025531;28;20192;-70
2021/06/05 11:30:28;;;;;;;1.20;1.20;;;35.00;43.40;;;;;;5026004;28;20648;-72
2021/06/05 11:32:56;;;;;;;1.40;1.40;;;34.10;43.50;;;;;;5025957;28;20199;-69
2021/06/05 11:35:40;;;;;;;1.30;1.30;;;33.90;47.00;;;;;;5026032;28;20544;-70
2021/06/05 11:38:08;;;;;;;1.70;1.70;;;34.00;44.70;;;;;;5025564;28;20186;-71
2021/06/05 11:40:59;;;;;;;1.33;1.17;;;34.40;47.40;;;;;;5024380;28;20257;-70
2021/06/05 11:43:30;;;;;;;1.48;1.25;;;35.10;44.50;;;;;;5025188;28;20214;-71
2021/06/05 11:46:37;;;;;;;1.30;1.30;;;35.60;44.00;;;;;;5026196;28;20199;-70
2021/06/05 11:49:05;;;;;;;3.38;1.58;;;36.20;43.10;;;;;;5024505;28;20207;-73
2021/06/05 11:51:44;;;;;;;2.35;1.50;;;37.00;43.60;;;;;;5025994;28;20186;-72
2021/06/05 11:54:09;;;;;;;1.50;1.50;;;37.40;42.00;;;;;;5017364;28;20302;-71
2021/06/05 11:56:46;;;;;;;1.40;1.30;;;37.80;42.20;;;;;;5040008;28;20286;-71
2021/06/05 11:59:24;;;;;;;1.33;1.27;;;38.30;42.00;;;;;;5046147;28;20454;-71
2021/06/05 12:01:51;;;;;;;1.40;1.40;;;38.80;41.80;;;;;;5044958;28;20219;-71
2021/06/05 12:04:21;;;;;;;3.83;1.33;;;39.30;40.40;;;;;;5046363;28;20684;-71
2021/06/05 12:06:48;;;;;;;1.65;1.65;;;39.60;42.00;;;;;;5046161;28;20283;-71
2021/06/05 12:09:25;;;;;;;1.30;1.30;;;39.60;41.70;;;;;;5044364;28;20733;-70
2021/06/05 12:11:58;;;;;;;1.50;1.50;;;39.70;39.90;;;;;;5052751;28;20754;-70
2021/06/05 12:14:56;;;;;;;1.40;1.40;;;39.50;40.30;;;;;;5044316;28;20251;-69
2021/06/05 12:17:32;;;;;;;1.25;1.25;;;39.30;39.90;;;;;;5045952;28;20202;-72
2021/06/05 12:20:23;;;;;;;2.13;2.00;;;38.80;39.30;;;;;;5050065;28;20232;-71
2021/06/05 12:22:55;;;;;;;2.83;1.58;;;38.40;39.40;;;;;;5044426;28;20175;-71
2021/06/05 12:25:33;;;;;;;1.38;1.38;;;38.00;39.10;;;;;;5046854;28;20179;-72
2021/06/05 12:28:22;;;;;;;1.58;1.48;;;37.60;38.50;;;;;;5047554;28;20668;-73
2021/06/05 12:30:48;;;;;;;1.70;1.70;;;37.30;40.00;;;;;;5046311;28;20306;-71
2021/06/05 12:33:32;;;;;;;2.25;1.58;;;37.50;42.70;;;;;;5049410;28;20883;-71
2021/06/05 12:36:02;;;;;;;1.80;1.73;;;37.50;40.10;;;;;;5046186;28;20191;-73
2021/06/05 12:38:38;;;;;;;1.50;1.50;;;37.10;43.20;;;;;;5046940;28;20209;-70
2021/06/05 12:41:10;;;;;;;1.70;1.60;;;35.90;40.10;;;;;;5044846;28;20228;-71
2021/06/05 12:43:39;;;;;;;1.83;1.83;;;34.90;43.00;;;;;;5046112;28;20684;-70
2021/06/05 12:46:11;;;;;;;1.70;1.60;;;34.20;45.10;;;;;;5045560;28;20256;-73
2021/06/05 12:48:37;;;;;;;1.50;1.50;;;34.10;43.40;;;;;;5048130;28;20249;-73
2021/06/05 12:51:07;;;;;;;1.48;1.48;;;34.30;44.90;;;;;;5047143;28;20199;-72
2021/06/05 12:53:33;;;;;;;1.75;1.75;;;34.70;43.50;;;;;;5047436;28;20232;-71
2021/06/05 12:56:28;;;;;;;1.38;1.38;;;35.50;43.00;;;;;;5045847;28;20226;-70
2021/06/05 12:58:57;;;;;;;1.42;1.42;;;36.50;41.00;;;;;;5045688;28;20217;-74
2021/06/05 13:01:32;;;;;;;1.90;1.33;;;37.40;41.40;;;;;;5045942;28;20793;-74
2021/06/05 13:03:59;;;;;;;1.30;1.30;;;38.20;40.50;;;;;;5046061;28;20183;-73
2021/06/05 13:06:33;;;;;;;1.65;1.63;;;39.00;41.50;;;;;;5054308;28;20690;-74
2021/06/05 13:09:25;;;;;;;1.25;1.25;;;39.50;39.60;;;;;;5054088;28;20535;-75
2021/06/05 13:12:00;;;;;;;1.27;1.17;;;40.10;37.80;;;;;;5055452;28;20191;-74